createdAt,value
2023-01-11T00:00:46.073Z,3.42
2023-01-11T00:03:18.508Z,3.42
2023-01-11T00:05:46.313Z,3.43
2023-01-11T00:08:14.066Z,3.44
2023-01-11T00:10:42.307Z,3.46
2023-01-11T00:13:09.985Z,3.47
2023-01-11T00:15:38.559Z,3.49
2023-01-11T00:18:06.646Z,3.49
2023-01-11T00:20:34.811Z,3.50
2023-01-11T00:23:02.457Z,3.50
2023-01-11T00:25:30.325Z,3.50
2023-01-11T00:27:57.995Z,3.51
2023-01-11T00:30:25.687Z,3.51
2023-01-11T00:32:57.717Z,3.51
2023-01-11T00:35:27.239Z,3.51
2023-01-11T00:37:55.103Z,3.52
2023-01-11T00:40:24.665Z,3.54
2023-01-11T00:43:11.099Z,3.57
2023-01-11T00:45:57.628Z,3.57
2023-01-11T00:48:25.477Z,3.58
2023-01-11T00:50:57.311Z,3.58
2023-01-11T00:53:25.009Z,3.57
2023-01-11T00:55:52.752Z,3.58
2023-01-11T00:58:20.534Z,3.59
2023-01-11T07:01:01.365Z,4.40
2023-01-11T07:03:29.533Z,4.40
2023-01-11T07:05:57.891Z,4.42
2023-01-11T07:08:26.549Z,4.42
2023-01-11T07:10:54.896Z,4.41
2023-01-11T07:13:23.132Z,4.40
2023-01-11T07:15:54.153Z,4.40
2023-01-11T07:18:22.073Z,4.39
2023-01-11T07:20:52.084Z,4.38
2023-01-11T07:23:20.038Z,4.37
2023-01-11T07:25:49.920Z,4.36
2023-01-11T07:28:17.737Z,4.36
2023-01-11T07:30:57.493Z,4.35
2023-01-11T07:33:26.649Z,4.32
2023-01-11T07:35:54.389Z,4.32
2023-01-11T07:38:23.098Z,4.33
2023-01-11T07:40:50.898Z,4.32
2023-01-11T07:43:20.104Z,4.32
2023-01-11T07:45:50.829Z,4.34
2023-01-11T07:48:27.896Z,4.36
2023-01-11T07:50:56.256Z,4.38
2023-01-11T07:53:26.286Z,4.39
2023-01-11T07:55:57.221Z,4.38
2023-01-11T07:58:25.077Z,4.39
2023-01-11T08:00:53.147Z,4.38
2023-01-11T08:03:21.366Z,4.36
2023-01-11T08:05:51.580Z,4.33
2023-01-11T08:08:19.504Z,4.30
2023-01-11T08:10:47.268Z,4.28
2023-01-11T08:13:37.453Z,4.26
2023-01-11T08:16:05.588Z,4.21
2023-01-11T08:18:33.397Z,4.20
2023-01-11T08:21:01.059Z,4.18
2023-01-11T08:23:31.184Z,4.16
2023-01-11T08:25:58.935Z,4.14
2023-01-11T08:28:26.904Z,4.13
2023-01-11T08:30:54.650Z,4.11
2023-01-11T08:33:22.572Z,4.11
2023-01-11T08:35:50.407Z,4.11
2023-01-11T08:38:18.057Z,4.11
2023-01-11T08:40:45.824Z,4.11
2023-01-11T08:43:13.585Z,4.11
2023-01-11T08:45:41.318Z,4.11
2023-01-11T08:48:09.084Z,4.13
2023-01-11T08:50:36.992Z,4.15
2023-01-11T08:53:04.719Z,4.16
2023-01-11T08:55:32.513Z,4.19
2023-01-11T08:58:00.275Z,4.19
2023-01-11T09:00:28.336Z,4.19
2023-01-11T09:02:56.128Z,4.23
2023-01-11T09:05:25.118Z,4.27
2023-01-11T09:07:56.344Z,4.31
2023-01-11T09:10:27.371Z,4.33
2023-01-11T09:12:56.212Z,4.40
2023-01-11T09:15:25.696Z,4.43
2023-01-11T09:17:53.945Z,4.45
2023-01-11T09:20:23.915Z,4.44
2023-01-11T09:22:53.194Z,4.47
2023-01-11T09:25:21.394Z,4.52
2023-01-11T09:27:51.021Z,4.52
2023-01-11T09:30:21.595Z,4.55
2023-01-11T09:32:50.784Z,4.56
2023-01-11T09:35:19.387Z,4.58
2023-01-11T09:37:51.636Z,4.63
2023-01-11T09:40:23.447Z,4.67
2023-01-11T09:43:00.748Z,4.67
2023-01-11T09:45:31.296Z,4.66
2023-01-11T09:48:23.229Z,4.69
2023-01-11T09:50:51.217Z,4.69
2023-01-11T09:53:31.064Z,4.72
2023-01-11T09:56:02.521Z,4.74
2023-01-11T09:58:36.607Z,4.74
2023-01-11T10:01:11.060Z,4.75
2023-01-11T10:04:06.554Z,4.82
2023-01-11T10:07:13.012Z,4.87
2023-01-11T10:18:32.543Z,4.90
2023-01-11T10:19:37.358Z,4.90
2023-01-11T10:22:15.731Z,4.95
2023-01-11T10:24:49.906Z,5.05
2023-01-11T10:27:36.531Z,5.12
2023-01-11T10:30:32.345Z,5.18
2023-01-11T10:33:30.181Z,5.23
2023-01-11T10:36:14.992Z,5.27
2023-01-11T10:39:11.109Z,5.30
2023-01-11T10:41:54.947Z,5.32
2023-01-11T10:44:41.666Z,5.36
2023-01-11T10:47:24.319Z,5.36
2023-01-11T10:49:59.121Z,5.37
2023-01-11T10:52:41.977Z,5.37
2023-01-11T10:55:24.288Z,5.37
2023-01-11T10:58:26.745Z,5.33
2023-01-11T11:01:16.659Z,5.32
2023-01-11T11:03:53.434Z,5.32
2023-01-11T11:06:37.158Z,5.36
2023-01-11T11:09:07.578Z,5.37
2023-01-11T11:11:47.118Z,5.37
2023-01-11T11:14:37.943Z,5.40
2023-01-11T11:17:28.101Z,5.42
2023-01-11T11:19:57.455Z,5.47
2023-01-11T11:22:25.366Z,5.51
2023-01-11T11:25:02.501Z,5.54
2023-01-11T11:27:53.888Z,5.53
2023-01-11T11:30:30.049Z,5.52
2023-01-11T11:33:01.821Z,5.48
2023-01-11T11:35:39.661Z,5.46
2023-01-11T11:38:21.677Z,5.46
2023-01-11T11:41:04.465Z,5.49
2023-01-11T11:43:34.802Z,5.51
2023-01-11T11:46:20.246Z,5.53
2023-01-11T11:49:12.213Z,5.56
2023-01-11T11:51:43.472Z,5.61
2023-01-11T11:54:20.346Z,5.62
2023-01-11T11:56:49.348Z,5.62
2023-01-11T11:59:20.360Z,5.62
2023-01-11T12:02:00.145Z,5.64
2023-01-11T12:04:40.464Z,5.66
2023-01-11T12:07:17.992Z,5.67
2023-01-11T12:10:11.849Z,5.64
2023-01-11T12:12:50.106Z,5.58
2023-01-11T12:15:22.937Z,5.54
2023-01-11T12:17:50.925Z,5.52
2023-01-11T12:20:21.956Z,5.49
2023-01-11T12:22:51.228Z,5.47
2023-01-11T12:25:24.386Z,5.45
2023-01-11T12:28:08.183Z,5.45
2023-01-11T12:31:00.840Z,5.43
2023-01-11T12:33:41.059Z,5.36
2023-01-11T12:36:15.341Z,5.33
2023-01-11T12:38:45.831Z,5.29
2023-01-11T12:41:16.247Z,5.27
2023-01-11T12:44:08.050Z,5.23
2023-01-11T12:46:44.756Z,5.18
2023-01-11T12:49:30.835Z,5.13
2023-01-11T12:52:04.437Z,5.10
2023-01-11T12:54:34.870Z,5.06
2023-01-11T12:57:17.278Z,4.99
2023-01-11T13:00:01.419Z,4.94
2023-01-11T13:02:41.326Z,4.89
2023-01-11T13:05:38.206Z,4.82
2023-01-11T13:08:22.059Z,4.76
2023-01-11T13:10:52.553Z,4.70
2023-01-11T13:13:29.645Z,4.68
2023-01-11T13:16:03.494Z,4.64
2023-01-11T13:19:05.884Z,4.61
2023-01-11T13:21:38.159Z,4.56
2023-01-11T13:24:13.246Z,4.54
2023-01-11T13:26:50.636Z,4.53
2023-01-11T13:29:27.767Z,4.50
2023-01-11T13:32:00.531Z,4.48
2023-01-11T13:34:36.142Z,4.45
2023-01-11T13:37:12.710Z,4.44
2023-01-11T13:40:04.225Z,4.42
2023-01-11T13:42:41.025Z,4.37
2023-01-11T13:45:28.183Z,4.33
2023-01-11T13:48:06.123Z,4.26
2023-01-11T13:50:48.630Z,4.22
2023-01-11T13:53:28.424Z,4.18
2023-01-11T13:56:06.387Z,4.13
2023-01-11T13:58:50.512Z,4.07
2023-01-11T14:01:20.443Z,4.03
2023-01-11T14:03:54.316Z,3.95
2023-01-11T14:07:01.003Z,3.91
2023-01-11T14:09:47.317Z,3.86
2023-01-11T14:12:30.341Z,3.82
2023-01-11T14:15:38.130Z,3.78
2023-01-11T14:18:47.493Z,3.74
2023-01-11T14:21:28.653Z,3.67
2023-01-11T14:23:57.258Z,3.62
2023-01-11T14:26:37.030Z,3.56
2023-01-11T14:29:47.197Z,3.49
2023-01-11T14:32:33.041Z,3.41
2023-01-11T14:35:09.620Z,3.37
2023-01-11T14:37:56.298Z,3.32
2023-01-11T14:40:42.598Z,3.29
2023-01-11T14:43:48.956Z,3.26
2023-01-11T14:46:27.912Z,3.22
2023-01-11T14:49:21.006Z,3.19
2023-01-11T14:52:15.019Z,3.15
2023-01-11T14:54:49.532Z,3.13
2023-01-11T14:57:43.423Z,3.12
2023-01-11T15:00:14.872Z,3.09
2023-01-11T15:02:42.873Z,3.05
2023-01-11T15:05:27.796Z,3.05
2023-01-11T15:08:13.801Z,3.04
2023-01-11T15:10:46.791Z,3.01
2023-01-11T15:13:19.904Z,2.97
2023-01-11T15:16:07.001Z,2.95
2023-01-11T15:18:44.894Z,2.92
2023-01-11T15:21:21.647Z,2.89
2023-01-11T15:23:54.561Z,2.88
2023-01-11T15:26:24.789Z,2.86
2023-01-11T15:28:56.327Z,2.82
2023-01-11T15:31:48.909Z,2.79
2023-01-11T15:34:30.760Z,2.77
2023-01-11T15:37:02.537Z,2.75
2023-01-11T15:39:50.176Z,2.72
2023-01-11T15:42:39.654Z,2.68
2023-01-11T15:45:25.550Z,2.68
2023-01-11T15:48:18.456Z,2.68
2023-01-11T15:50:54.141Z,2.68
2023-01-11T15:53:48.976Z,2.69
2023-01-11T15:56:46.804Z,2.69
2023-01-11T15:59:49.973Z,2.68
2023-01-11T16:02:55.088Z,2.69
2023-01-11T16:05:34.261Z,2.68
2023-01-11T16:08:10.303Z,2.69
2023-01-11T16:11:08.776Z,2.70
2023-01-11T16:14:07.025Z,2.70
2023-01-11T16:16:41.718Z,2.72
2023-01-11T16:19:21.728Z,2.74
2023-01-11T16:21:52.551Z,2.75
2023-01-11T16:24:24.162Z,2.75
2023-01-11T16:26:56.583Z,2.76
2023-01-11T16:29:27.349Z,2.74
2023-01-11T16:31:59.495Z,2.76
2023-01-11T16:34:29.814Z,2.76
2023-01-11T16:36:57.930Z,2.78
2023-01-11T16:39:28.617Z,2.80
2023-01-11T16:42:03.342Z,2.79
2023-01-11T16:44:37.046Z,2.79
2023-01-11T16:47:05.225Z,2.81
2023-01-11T16:49:33.604Z,2.82
2023-01-11T16:52:27.282Z,2.82
2023-01-11T16:54:57.193Z,2.82
2023-01-11T16:57:36.403Z,2.83
2023-01-11T17:00:08.235Z,2.85
2023-01-11T17:02:38.184Z,2.86
2023-01-11T17:05:21.125Z,2.85
2023-01-11T17:07:48.884Z,2.85
2023-01-11T17:10:16.736Z,2.86
2023-01-11T17:12:48.710Z,2.88
2023-01-11T17:15:30.294Z,2.88
2023-01-11T17:18:03.162Z,2.89
2023-01-11T17:20:32.697Z,2.88
2023-01-11T17:23:00.575Z,2.88
2023-01-11T17:25:41.077Z,2.89
2023-01-11T17:28:19.829Z,2.90
2023-01-11T17:30:50.597Z,2.89
2023-01-11T17:33:33.193Z,2.88
2023-01-11T17:36:02.809Z,2.87
2023-01-11T17:38:31.384Z,2.88
2023-01-11T17:41:01.434Z,2.86
2023-01-11T17:43:48.863Z,2.82
2023-01-11T17:46:20.556Z,2.78
2023-01-11T17:48:59.921Z,2.76
2023-01-11T17:51:31.410Z,2.74
2023-01-11T17:53:59.808Z,2.70
2023-01-11T17:56:39.250Z,2.69
2023-01-11T17:59:18.796Z,2.66
2023-01-11T18:01:52.296Z,2.62
2023-01-11T18:04:22.665Z,2.59
2023-01-11T18:06:54.881Z,2.58
2023-01-11T18:09:27.050Z,2.55
2023-01-11T18:12:13.762Z,2.52
2023-01-11T18:14:52.737Z,2.52
2023-01-11T18:17:36.938Z,2.50
2023-01-11T18:20:24.655Z,2.50
2023-01-11T18:23:11.185Z,2.45
2023-01-11T18:25:38.931Z,2.45
2023-01-11T18:28:16.139Z,2.44
2023-01-11T18:30:53.719Z,2.44
2023-01-11T18:33:25.106Z,2.43
2023-01-11T18:35:59.058Z,2.42
2023-01-11T18:38:36.016Z,2.43
2023-01-11T18:41:27.369Z,2.42
2023-01-11T18:43:55.849Z,2.40
2023-01-11T18:46:23.612Z,2.41
2023-01-11T18:48:51.359Z,2.39
2023-01-11T18:51:28.235Z,2.38
2023-01-11T18:53:55.894Z,2.40
2023-01-11T18:56:23.657Z,2.41
2023-01-11T18:58:51.342Z,2.39
2023-01-11T19:01:19.368Z,2.38
2023-01-11T19:03:47.874Z,2.38
2023-01-11T19:06:19.465Z,2.36
2023-01-11T19:08:47.290Z,2.36
2023-01-11T19:11:17.384Z,2.36
2023-01-11T19:13:46.844Z,2.37
2023-01-11T19:16:15.106Z,2.35
2023-01-11T19:18:43.249Z,2.34
2023-01-11T19:21:13.256Z,2.31
2023-01-11T19:23:41.654Z,2.30
2023-01-11T19:26:09.307Z,2.28
2023-01-11T19:28:37.239Z,2.25
2023-01-11T19:31:09.347Z,2.22
2023-01-11T19:33:37.359Z,2.20
2023-01-11T19:36:06.755Z,2.19
2023-01-11T19:38:34.575Z,2.19
2023-01-11T19:41:09.536Z,2.18
2023-01-11T19:43:44.780Z,2.18
2023-01-11T19:46:19.577Z,2.17
2023-01-11T19:48:55.326Z,2.17
2023-01-11T19:51:23.086Z,2.17
2023-01-11T19:53:50.827Z,2.18
2023-01-11T19:56:18.828Z,2.19
2023-01-11T19:58:46.559Z,2.21
2023-01-11T20:01:14.628Z,2.22
2023-01-11T20:03:43.646Z,2.24
2023-01-11T20:06:11.821Z,2.27
2023-01-11T20:08:41.364Z,2.31
2023-01-11T20:11:11.788Z,2.31
2023-01-11T20:13:40.229Z,2.32
2023-01-11T20:16:10.509Z,2.35
2023-01-11T20:18:39.445Z,2.35
2023-01-11T20:21:07.200Z,2.38
2023-01-11T20:23:35.065Z,2.39
2023-01-11T20:26:06.313Z,2.42
2023-01-11T20:28:34.180Z,2.45
2023-01-11T20:31:06.268Z,2.45
2023-01-11T20:33:34.787Z,2.46
2023-01-11T20:36:13.064Z,2.48
2023-01-11T20:38:41.414Z,2.49
2023-01-11T20:41:38.400Z,2.51
2023-01-11T20:44:07.445Z,2.53
2023-01-11T20:46:35.976Z,2.56
2023-01-11T20:49:05.619Z,2.59
2023-01-11T20:51:33.620Z,2.61
2023-01-11T20:54:01.924Z,2.65
2023-01-11T20:56:29.875Z,2.70
2023-01-11T20:58:57.620Z,2.74
2023-01-11T21:01:28.498Z,2.79
2023-01-11T21:04:05.918Z,2.82
2023-01-11T21:06:35.791Z,2.85
2023-01-11T21:09:05.938Z,2.87
2023-01-11T21:11:34.190Z,2.89
2023-01-11T21:14:04.214Z,2.93
2023-01-11T21:16:32.279Z,2.94
2023-01-11T21:19:02.555Z,2.96
2023-01-11T21:21:32.985Z,2.97
2023-01-11T21:24:03.302Z,2.99
2023-01-11T21:26:32.337Z,2.99
2023-01-11T21:29:03.537Z,3.02
2023-01-11T21:31:33.730Z,3.04
2023-01-11T21:34:02.720Z,3.04
2023-01-11T21:36:31.660Z,3.04
2023-01-11T21:39:00.725Z,3.07
2023-01-11T21:41:52.273Z,3.07
2023-01-11T21:44:21.692Z,3.09
2023-01-11T21:46:50.166Z,3.12
2023-01-11T21:49:18.115Z,3.13
2023-01-11T21:51:45.868Z,3.15
2023-01-11T21:54:15.506Z,3.17
2023-01-11T21:56:43.245Z,3.18
2023-01-11T21:59:10.979Z,3.21
2023-01-11T22:01:41.425Z,3.23
2023-01-11T22:04:12.402Z,3.25
2023-01-11T22:06:47.426Z,3.27
2023-01-11T22:09:15.524Z,3.27
2023-01-11T22:11:43.324Z,3.29
2023-01-11T22:14:11.300Z,3.31
2023-01-11T22:16:39.585Z,3.33
2023-01-11T22:19:07.869Z,3.33
2023-01-11T22:21:37.401Z,3.34
2023-01-11T22:24:08.943Z,3.36
2023-01-11T22:26:39.342Z,3.38
2023-01-11T22:29:17.747Z,3.39
2023-01-11T22:31:52.512Z,3.40
2023-01-11T22:34:22.101Z,3.41
2023-01-11T22:36:50.057Z,3.41
2023-01-11T22:39:19.735Z,3.39
2023-01-11T22:41:49.773Z,3.40
2023-01-11T22:44:17.848Z,3.39
2023-01-11T22:46:45.761Z,3.39
2023-01-11T22:49:14.385Z,3.40
2023-01-11T22:51:43.373Z,3.40
2023-01-11T22:54:11.861Z,3.39
2023-01-11T22:56:40.248Z,3.41
2023-01-11T22:59:08.386Z,3.42
2023-01-11T23:01:38.537Z,3.43
2023-01-11T23:04:08.375Z,3.44
2023-01-11T23:06:38.871Z,3.44
2023-01-11T23:09:09.637Z,3.42
2023-01-11T23:11:58.461Z,3.43
2023-01-11T23:14:31.276Z,3.43
2023-01-11T23:17:07.342Z,3.38
2023-01-11T23:19:40.666Z,3.38
2023-01-11T23:22:09.872Z,3.37
2023-01-11T23:24:38.082Z,3.33
2023-01-11T23:27:05.999Z,3.31
2023-01-11T23:29:36.331Z,3.30
2023-01-11T23:32:04.605Z,3.29
2023-01-11T23:34:32.374Z,3.27
2023-01-11T23:37:00.153Z,3.32
2023-01-11T23:39:27.920Z,3.33
2023-01-11T23:42:14.103Z,3.29
2023-01-11T23:44:41.879Z,3.28
2023-01-11T23:47:21.146Z,3.28
2023-01-11T23:49:50.318Z,3.28
2023-01-11T23:52:19.996Z,3.28
2023-01-11T23:54:48.193Z,3.28
2023-01-11T23:57:17.496Z,3.27
2023-01-11T23:59:45.466Z,3.28
